Route Details

Aircraft Information
Group: European Fleet
Types: A30F, A31F, B738
Route Data
Distance: 317nm
Duration: 1h 00m
Origin METAR: EDDK 080050Z AUTO VRB01KT CAVOK M03/M07 Q1039 NOSIG
Dest. METAR: LOWL 080050Z AUTO 08006KT 9999 NCD M06/M09 Q1040
Freight Data
(for Feb 8, 2023)
Load Factor:
97%
Manifested Cargo: 94,063lbs
Financial History
Total Freight: 280,300lbs
Average Load: 0lbs/flt
Fuel Used: 42,398lbs
Avg. Fuel Used: 0lbs/flt
Fuel Expense: $23,574
Avg. Fuel Expense: $0
Avg. Fuel Cost: $0/lbs
Total Gross Income: $644,690
Pilot Pay: $1,165
Total Expenses: $127,604
Total Revenue: $491,236
Average Revenue: $0

Capitol Logistics 545




EDDK
Cologne Bonn Airport
Cologne, DE
LOWL
Linz Hörsching Airport
Linz, AT

Activity Log

Date Flight Route Aircraft Duration
10/13/2022 CPX545 KUMI7F KUMIK L603 TESGA DCT ESATI DCT KOMIB DCT ARMUT T703 DEXIT DEXI1K A30F 1h 32m
09/23/2022 CPX545 Not Available B738 1h 11m
09/07/2022 CPX545 KUMI9B KUMIK L603 TESGA ESATI KOMIB ARMUT T703 DEXIT DEXI1K B738 1h 08m
07/19/2022 CPX545 Not Available B738 1h 05m
07/18/2022 CPX545 KUMI7F KUMIK L603 TESGA DCT ESATI DCT KOMIB DCT ARMUT T703 DEXIT DEXI1K A30F 1h 08m